sensor_id;sensor_type;location;lat;lon;timestamp;pressure;altitude;pressure_sealevel;temperature;humidity
49216;BME280;45943;53.148;8.204;2022-11-11T00:01:14;102640.81;;;14.12;100.00
49216;BME280;45943;53.148;8.204;2022-11-11T00:03:42;102637.72;;;13.91;100.00
49216;BME280;45943;53.148;8.204;2022-11-11T00:06:09;102637.09;;;14.27;100.00
49216;BME280;45943;53.148;8.204;2022-11-11T00:08:40;102643.47;;;14.26;100.00
49216;BME280;45943;53.148;8.204;2022-11-11T00:11:07;102641.56;;;14.14;100.00
49216;BME280;45943;53.148;8.204;2022-11-11T00:13:35;102642.91;;;14.21;100.00
49216;BME280;45943;53.148;8.204;2022-11-11T00:16:06;102642.28;;;14.30;100.00
49216;BME280;45943;53.148;8.204;2022-11-11T00:18:37;102638.69;;;14.17;100.00
49216;BME280;45943;53.148;8.204;2022-11-11T00:21:22;102644.16;;;14.15;100.00
49216;BME280;45943;53.148;8.204;2022-11-11T00:24:22;102651.84;;;13.94;100.00
49216;BME280;45943;53.148;8.204;2022-11-11T00:27:09;102651.00;;;14.21;100.00
49216;BME280;45943;53.148;8.204;2022-11-11T00:29:36;102655.50;;;14.07;100.00
49216;BME280;45943;53.148;8.204;2022-11-11T00:32:03;102664.13;;;14.13;100.00
49216;BME280;45943;53.148;8.204;2022-11-11T00:34:57;102663.44;;;13.96;100.00
49216;BME280;45943;53.148;8.204;2022-11-11T00:37:44;102652.44;;;13.99;100.00
49216;BME280;45943;53.148;8.204;2022-11-11T00:40:12;102652.19;;;13.75;100.00
49216;BME280;45943;53.148;8.204;2022-11-11T00:42:38;102651.69;;;13.83;100.00
49216;BME280;45943;53.148;8.204;2022-11-11T00:45:04;102650.28;;;13.77;100.00
49216;BME280;45943;53.148;8.204;2022-11-11T00:47:30;102642.91;;;13.94;100.00
49216;BME280;45943;53.148;8.204;2022-11-11T00:50:17;102648.66;;;13.61;100.00
49216;BME280;45943;53.148;8.204;2022-11-11T00:53:07;102643.66;;;13.69;100.00
49216;BME280;45943;53.148;8.204;2022-11-11T00:55:38;102643.66;;;13.69;100.00
49216;BME280;45943;53.148;8.204;2022-11-11T00:58:04;102645.88;;;13.62;100.00
49216;BME280;45943;53.148;8.204;2022-11-11T01:00:30;102644.63;;;13.54;100.00
49216;BME280;45943;53.148;8.204;2022-11-11T01:02:56;102638.78;;;13.47;100.00
49216;BME280;45943;53.148;8.204;2022-11-11T01:05:22;102638.69;;;13.48;100.00
49216;BME280;45943;53.148;8.204;2022-11-11T01:07:49;102641.75;;;13.42;100.00
49216;BME280;45943;53.148;8.204;2022-11-11T01:10:16;102637.91;;;13.32;100.00
49216;BME280;45943;53.148;8.204;2022-11-11T01:13:03;102634.75;;;13.40;100.00
49216;BME280;45943;53.148;8.204;2022-11-11T01:15:37;102625.41;;;13.31;100.00
49216;BME280;45943;53.148;8.204;2022-11-11T01:18:04;102626.56;;;13.27;100.00
49216;BME280;45943;53.148;8.204;2022-11-11T01:20:30;102617.22;;;13.33;100.00
49216;BME280;45943;53.148;8.204;2022-11-11T01:22:56;102620.63;;;13.63;100.00
49216;BME280;45943;53.148;8.204;2022-11-11T01:25:22;102626.56;;;13.41;100.00
49216;BME280;45943;53.148;8.204;2022-11-11T01:27:48;102614.41;;;13.48;100.00
49216;BME280;45943;53.148;8.204;2022-11-11T01:30:15;102619.16;;;13.31;100.00
49216;BME280;45943;53.148;8.204;2022-11-11T01:32:41;102625.03;;;13.37;100.00
49216;BME280;45943;53.148;8.204;2022-11-11T01:35:07;102625.31;;;13.33;100.00
49216;BME280;45943;53.148;8.204;2022-11-11T01:37:33;102632.22;;;13.37;100.00
49216;BME280;45943;53.148;8.204;2022-11-11T01:39:59;102632.81;;;13.42;100.00
49216;BME280;45943;53.148;8.204;2022-11-11T01:42:26;102625.31;;;13.47;100.00
49216;BME280;45943;53.148;8.204;2022-11-11T01:44:52;102617.28;;;13.45;100.00
49216;BME280;45943;53.148;8.204;2022-11-11T01:47:18;102609.72;;;13.38;100.00
49216;BME280;45943;53.148;8.204;2022-11-11T01:49:55;102619.81;;;13.34;100.00
49216;BME280;45943;53.148;8.204;2022-11-11T02:00:14;102602.47;;;12.96;100.00
49216;BME280;45943;53.148;8.204;2022-11-11T02:02:56;102600.53;;;12.98;100.00
49216;BME280;45943;53.148;8.204;2022-11-11T02:05:24;102594.97;;;12.86;100.00
49216;BME280;45943;53.148;8.204;2022-11-11T02:08:20;102605.56;;;13.04;100.00
49216;BME280;45943;53.148;8.204;2022-11-11T02:10:59;102594.97;;;12.72;100.00
49216;BME280;45943;53.148;8.204;2022-11-11T02:13:29;102609.97;;;12.76;100.00
49216;BME280;45943;53.148;8.204;2022-11-11T02:16:14;102610.06;;;12.75;100.00
49216;BME280;45943;53.148;8.204;2022-11-11T02:18:41;102607.59;;;13.00;100.00
49216;BME280;45943;53.148;8.204;2022-11-11T02:21:09;102607.69;;;12.99;100.00
49216;BME280;45943;53.148;8.204;2022-11-11T02:26:29;102592.56;;;12.96;100.00
49216;BME280;45943;53.148;8.204;2022-11-11T02:28:58;102589.97;;;13.09;100.00
49216;BME280;45943;53.148;8.204;2022-11-11T02:31:26;102599.09;;;13.06;100.00
49216;BME280;45943;53.148;8.204;2022-11-11T02:33:53;102597.19;;;12.80;100.00
49216;BME280;45943;53.148;8.204;2022-11-11T02:36:20;102598.72;;;12.84;100.00
49216;BME280;45943;53.148;8.204;2022-11-11T02:38:46;102607.88;;;12.81;100.00
49216;BME280;45943;53.148;8.204;2022-11-11T02:41:13;102615.91;;;12.67;100.00
49216;BME280;45943;53.148;8.204;2022-11-11T02:43:58;102620.91;;;12.59;100.00
49216;BME280;45943;53.148;8.204;2022-11-11T02:46:23;102625.59;;;12.55;100.00
49216;BME280;45943;53.148;8.204;2022-11-11T02:48:49;102628.28;;;12.41;100.00
49216;BME280;45943;53.148;8.204;2022-11-11T02:51:15;102631.38;;;12.63;100.00
49216;BME280;45943;53.148;8.204;2022-11-11T02:53:41;102640.44;;;12.62;100.00
49216;BME280;45943;53.148;8.204;2022-11-11T02:56:07;102642.69;;;12.40;100.00
49216;BME280;45943;53.148;8.204;2022-11-11T02:58:33;102653.78;;;12.50;100.00
49216;BME280;45943;53.148;8.204;2022-11-11T03:00:59;102651.63;;;12.41;100.00
49216;BME280;45943;53.148;8.204;2022-11-11T03:03:25;102654.75;;;12.33;100.00
49216;BME280;45943;53.148;8.204;2022-11-11T03:05:51;102660.13;;;12.49;100.00
49216;BME280;45943;53.148;8.204;2022-11-11T03:08:17;102658.19;;;12.51;100.00
49216;BME280;45943;53.148;8.204;2022-11-11T03:10:43;102663.69;;;12.63;100.00
49216;BME280;45943;53.148;8.204;2022-11-11T03:13:09;102667.94;;;12.38;100.00
49216;BME280;45943;53.148;8.204;2022-11-11T03:15:35;102663.09;;;12.58;100.00
49216;BME280;45943;53.148;8.204;2022-11-11T03:18:01;102658.53;;;12.75;100.00
49216;BME280;45943;53.148;8.204;2022-11-11T03:20:28;102653.91;;;12.77;100.00
49216;BME280;45943;53.148;8.204;2022-11-11T03:23:13;102660.44;;;12.73;100.00
49216;BME280;45943;53.148;8.204;2022-11-11T03:25:45;102669.59;;;12.84;100.00
49216;BME280;45943;53.148;8.204;2022-11-11T03:28:21;102667.88;;;13.28;100.00
49216;BME280;45943;53.148;8.204;2022-11-11T03:30:49;102680.38;;;12.84;100.00
49216;BME280;45943;53.148;8.204;2022-11-11T03:33:16;102693.19;;;12.81;100.00
49216;BME280;45943;53.148;8.204;2022-11-11T03:35:45;102692.88;;;12.71;100.00
49216;BME280;45943;53.148;8.204;2022-11-11T03:38:12;102685.72;;;13.14;100.00
49216;BME280;45943;53.148;8.204;2022-11-11T03:40:48;102693.94;;;13.70;100.00
49216;BME280;45943;53.148;8.204;2022-11-11T03:43:20;102685.25;;;13.65;100.00
49216;BME280;45943;53.148;8.204;2022-11-11T03:45:47;102687.25;;;13.75;100.00
49216;BME280;45943;53.148;8.204;2022-11-11T03:48:14;102683.66;;;13.19;100.00
49216;BME280;45943;53.148;8.204;2022-11-11T03:50:40;102688.50;;;12.99;100.00
49216;BME280;45943;53.148;8.204;2022-11-11T03:53:06;102684.19;;;12.66;100.00
49216;BME280;45943;53.148;8.204;2022-11-11T03:55:32;102680.84;;;12.77;100.00
49216;BME280;45943;53.148;8.204;2022-11-11T03:57:58;102687.84;;;12.65;100.00
49216;BME280;45943;53.148;8.204;2022-11-11T04:00:25;102677.72;;;12.54;100.00
49216;BME280;45943;53.148;8.204;2022-11-11T04:05:47;102673.19;;;12.55;100.00
49216;BME280;45943;53.148;8.204;2022-11-11T04:08:31;102674.69;;;12.75;100.00
49216;BME280;45943;53.148;8.204;2022-11-11T04:11:18;102686.94;;;12.80;100.00
49216;BME280;45943;53.148;8.204;2022-11-11T04:13:49;102681.53;;;12.80;100.00
49216;BME280;45943;53.148;8.204;2022-11-11T04:16:35;102683.28;;;12.96;100.00
49216;BME280;45943;53.148;8.204;2022-11-11T04:19:01;102681.66;;;12.93;100.00
49216;BME280;45943;53.148;8.204;2022-11-11T04:21:45;102668.75;;;12.84;100.00
49216;BME280;45943;53.148;8.204;2022-11-11T04:24:12;102661.13;;;12.76;100.00
49216;BME280;45943;53.148;8.204;2022-11-11T04:26:59;102659.34;;;12.91;100.00
49216;BME280;45943;53.148;8.204;2022-11-11T04:29:27;102673.16;;;12.85;100.00
49216;BME280;45943;53.148;8.204;2022-11-11T04:34:44;102661.38;;;12.57;100.00
49216;BME280;45943;53.148;8.204;2022-11-11T04:37:12;102672.69;;;12.78;100.00
49216;BME280;45943;53.148;8.204;2022-11-11T04:39:39;102660.25;;;12.76;100.00
49216;BME280;45943;53.148;8.204;2022-11-11T04:42:23;102661.91;;;12.48;100.00
49216;BME280;45943;53.148;8.204;2022-11-11T04:44:50;102676.53;;;12.44;100.00
49216;BME280;45943;53.148;8.204;2022-11-11T04:47:35;102673.38;;;12.52;100.00
49216;BME280;45943;53.148;8.204;2022-11-11T04:50:01;102665.16;;;12.69;100.00
49216;BME280;45943;53.148;8.204;2022-11-11T04:52:27;102681.56;;;12.50;100.00
49216;BME280;45943;53.148;8.204;2022-11-11T04:54:54;102683.06;;;12.70;100.00
49216;BME280;45943;53.148;8.204;2022-11-11T04:57:44;102691.22;;;12.69;100.00
49216;BME280;45943;53.148;8.204;2022-11-11T05:00:15;102684.59;;;12.74;100.00
49216;BME280;45943;53.148;8.204;2022-11-11T05:02:43;102695.56;;;12.71;100.00
49216;BME280;45943;53.148;8.204;2022-11-11T05:05:28;102679.41;;;12.71;100.00
49216;BME280;45943;53.148;8.204;2022-11-11T05:08:18;102680.25;;;12.72;100.00
49216;BME280;45943;53.148;8.204;2022-11-11T05:11:03;102684.47;;;12.61;100.00
49216;BME280;45943;53.148;8.204;2022-11-11T05:13:30;102670.56;;;12.69;100.00
49216;BME280;45943;53.148;8.204;2022-11-11T05:16:15;102671.47;;;12.68;100.00
49216;BME280;45943;53.148;8.204;2022-11-11T05:19:04;102678.53;;;12.71;100.00
49216;BME280;45943;53.148;8.204;2022-11-11T05:21:50;102671.53;;;12.82;100.00
49216;BME280;45943;53.148;8.204;2022-11-11T05:24:20;102671.53;;;12.82;100.00
49216;BME280;45943;53.148;8.204;2022-11-11T05:27:04;102676.63;;;12.87;100.00
49216;BME280;45943;53.148;8.204;2022-11-11T05:29:30;102677.78;;;12.69;100.00
49216;BME280;45943;53.148;8.204;2022-11-11T05:31:56;102681.78;;;12.61;100.00
49216;BME280;45943;53.148;8.204;2022-11-11T05:34:22;102669.25;;;12.90;100.00
49216;BME280;45943;53.148;8.204;2022-11-11T05:36:48;102669.16;;;12.92;100.00
49216;BME280;45943;53.148;8.204;2022-11-11T05:39:14;102687.94;;;12.63;100.00
49216;BME280;45943;53.148;8.204;2022-11-11T05:41:40;102679.72;;;12.95;100.00
49216;BME280;45943;53.148;8.204;2022-11-11T05:44:06;102674.31;;;12.81;100.00
49216;BME280;45943;53.148;8.204;2022-11-11T05:46:32;102670.09;;;12.91;100.00
49216;BME280;45943;53.148;8.204;2022-11-11T05:48:58;102663.66;;;12.93;100.00
49216;BME280;45943;53.148;8.204;2022-11-11T05:51:43;102663.06;;;12.74;100.00
49216;BME280;45943;53.148;8.204;2022-11-11T05:54:09;102671.13;;;12.74;100.00
49216;BME280;45943;53.148;8.204;2022-11-11T05:56:36;102672.41;;;12.83;100.00
49216;BME280;45943;53.148;8.204;2022-11-11T05:59:02;102679.31;;;12.73;100.00
49216;BME280;45943;53.148;8.204;2022-11-11T06:01:28;102675.56;;;12.75;100.00
49216;BME280;45943;53.148;8.204;2022-11-11T06:03:54;102675.53;;;12.61;100.00
49216;BME280;45943;53.148;8.204;2022-11-11T06:06:20;102671.72;;;12.79;100.00
49216;BME280;45943;53.148;8.204;2022-11-11T06:08:46;102673.06;;;12.86;100.00
49216;BME280;45943;53.148;8.204;2022-11-11T06:11:12;102677.28;;;12.76;100.00
49216;BME280;45943;53.148;8.204;2022-11-11T06:13:38;102679.09;;;12.76;100.00
49216;BME280;45943;53.148;8.204;2022-11-11T06:16:04;102687.88;;;12.79;100.00
49216;BME280;45943;53.148;8.204;2022-11-11T06:18:31;102687.19;;;12.76;100.00
49216;BME280;45943;53.148;8.204;2022-11-11T06:20:57;102699.84;;;12.89;100.00
49216;BME280;45943;53.148;8.204;2022-11-11T06:23:25;102709.56;;;12.62;100.00
49216;BME280;45943;53.148;8.204;2022-11-11T06:25:52;102703.13;;;12.64;100.00
49216;BME280;45943;53.148;8.204;2022-11-11T06:32:23;102700.28;;;12.82;100.00
49216;BME280;45943;53.148;8.204;2022-11-11T06:34:49;102707.38;;;12.99;100.00
49216;BME280;45943;53.148;8.204;2022-11-11T06:37:15;102709.25;;;12.82;100.00
49216;BME280;45943;53.148;8.204;2022-11-11T06:39:41;102707.91;;;12.89;100.00
49216;BME280;45943;53.148;8.204;2022-11-11T06:42:07;102706.09;;;13.48;100.00
49216;BME280;45943;53.148;8.204;2022-11-11T06:44:33;102709.56;;;12.92;100.00
49216;BME280;45943;53.148;8.204;2022-11-11T06:46:59;102711.38;;;13.06;100.00
49216;BME280;45943;53.148;8.204;2022-11-11T06:49:25;102721.00;;;12.96;100.00
49216;BME280;45943;53.148;8.204;2022-11-11T06:51:53;102731.19;;;12.90;100.00
49216;BME280;45943;53.148;8.204;2022-11-11T06:54:21;102727.63;;;12.90;100.00
49216;BME280;45943;53.148;8.204;2022-11-11T06:56:57;102728.63;;;13.03;100.00
49216;BME280;45943;53.148;8.204;2022-11-11T06:59:23;102731.31;;;13.03;100.00
49216;BME280;45943;53.148;8.204;2022-11-11T07:01:49;102736.13;;;12.98;100.00
49216;BME280;45943;53.148;8.204;2022-11-11T07:04:15;102738.09;;;12.80;100.00
49216;BME280;45943;53.148;8.204;2022-11-11T07:06:41;102729.19;;;12.94;100.00
49216;BME280;45943;53.148;8.204;2022-11-11T07:09:07;102743.25;;;12.69;100.00
49216;BME280;45943;53.148;8.204;2022-11-11T07:14:15;102729.06;;;12.96;100.00
49216;BME280;45943;53.148;8.204;2022-11-11T07:16:41;102736.28;;;12.95;100.00
49216;BME280;45943;53.148;8.204;2022-11-11T07:19:07;102743.31;;;12.98;100.00
49216;BME280;45943;53.148;8.204;2022-11-11T07:21:33;102754.78;;;13.01;100.00
49216;BME280;45943;53.148;8.204;2022-11-11T07:23:59;102756.22;;;12.92;100.00
49216;BME280;45943;53.148;8.204;2022-11-11T07:26:31;102756.72;;;12.69;100.00
49216;BME280;45943;53.148;8.204;2022-11-11T07:29:13;102762.47;;;13.07;100.00
49216;BME280;45943;53.148;8.204;2022-11-11T07:31:56;102768.06;;;13.20;100.00
49216;BME280;45943;53.148;8.204;2022-11-11T07:34:44;102776.34;;;13.01;100.00
49216;BME280;45943;53.148;8.204;2022-11-11T07:37:19;102769.34;;;13.13;100.00
49216;BME280;45943;53.148;8.204;2022-11-11T07:39:45;102775.28;;;13.34;100.00
49216;BME280;45943;53.148;8.204;2022-11-11T07:42:11;102780.78;;;13.32;100.00
49216;BME280;45943;53.148;8.204;2022-11-11T07:44:37;102792.72;;;13.12;100.00
49216;BME280;45943;53.148;8.204;2022-11-11T07:47:03;102807.50;;;13.21;100.00
49216;BME280;45943;53.148;8.204;2022-11-11T07:49:29;102810.63;;;13.13;100.00
49216;BME280;45943;53.148;8.204;2022-11-11T07:51:55;102807.72;;;13.32;100.00
49216;BME280;45943;53.148;8.204;2022-11-11T07:54:21;102812.56;;;13.11;100.00
49216;BME280;45943;53.148;8.204;2022-11-11T07:56:47;102818.78;;;12.82;100.00
49216;BME280;45943;53.148;8.204;2022-11-11T07:59:13;102818.50;;;13.02;100.00
49216;BME280;45943;53.148;8.204;2022-11-11T08:01:39;102819.03;;;12.77;100.00
49216;BME280;45943;53.148;8.204;2022-11-11T08:04:05;102815.91;;;13.31;100.00
49216;BME280;45943;53.148;8.204;2022-11-11T08:06:31;102824.38;;;13.09;100.00
49216;BME280;45943;53.148;8.204;2022-11-11T08:08:57;102829.81;;;12.77;100.00
49216;BME280;45943;53.148;8.204;2022-11-11T08:11:23;102817.34;;;13.06;100.00
49216;BME280;45943;53.148;8.204;2022-11-11T08:14:08;102822.66;;;13.08;100.00
49216;BME280;45943;53.148;8.204;2022-11-11T08:16:34;102830.41;;;12.98;100.00
49216;BME280;45943;53.148;8.204;2022-11-11T08:19:00;102831.03;;;13.33;100.00
49216;BME280;45943;53.148;8.204;2022-11-11T08:21:45;102829.09;;;13.35;100.00
49216;BME280;45943;53.148;8.204;2022-11-11T08:24:11;102824.00;;;13.31;100.00
49216;BME280;45943;53.148;8.204;2022-11-11T08:26:37;102825.16;;;13.11;100.00
49216;BME280;45943;53.148;8.204;2022-11-11T08:29:05;102820.34;;;13.46;100.00
49216;BME280;45943;53.148;8.204;2022-11-11T08:31:31;102819.97;;;13.52;100.00
49216;BME280;45943;53.148;8.204;2022-11-11T08:33:59;102815.44;;;13.38;100.00
49216;BME280;45943;53.148;8.204;2022-11-11T08:36:25;102828.63;;;13.13;100.00
49216;BME280;45943;53.148;8.204;2022-11-11T08:38:51;102835.84;;;13.12;100.00
49216;BME280;45943;53.148;8.204;2022-11-11T08:41:17;102853.44;;;13.34;100.00
49216;BME280;45943;53.148;8.204;2022-11-11T08:43:46;102848.03;;;13.04;100.00
49216;BME280;45943;53.148;8.204;2022-11-11T08:46:12;102850.63;;;13.21;100.00
49216;BME280;45943;53.148;8.204;2022-11-11T08:48:38;102845.25;;;13.21;100.00
49216;BME280;45943;53.148;8.204;2022-11-11T08:51:04;102844.91;;;13.41;100.00
49216;BME280;45943;53.148;8.204;2022-11-11T08:53:29;102844.91;;;12.96;100.00
49216;BME280;45943;53.148;8.204;2022-11-11T08:55:59;102843.13;;;13.26;100.00
49216;BME280;45943;53.148;8.204;2022-11-11T08:58:27;102850.94;;;13.31;100.00
49216;BME280;45943;53.148;8.204;2022-11-11T09:00:53;102867.50;;;13.09;100.00
49216;BME280;45943;53.148;8.204;2022-11-11T09:03:19;102857.59;;;12.93;100.00
49216;BME280;45943;53.148;8.204;2022-11-11T09:05:45;102859.66;;;13.04;100.00
49216;BME280;45943;53.148;8.204;2022-11-11T09:08:12;102850.56;;;13.37;100.00
49216;BME280;45943;53.148;8.204;2022-11-11T09:10:38;102857.09;;;13.33;100.00
49216;BME280;45943;53.148;8.204;2022-11-11T09:13:04;102865.81;;;13.38;100.00
49216;BME280;45943;53.148;8.204;2022-11-11T09:15:31;102870.13;;;13.40;100.00
49216;BME280;45943;53.148;8.204;2022-11-11T09:17:58;102867.47;;;13.25;100.00
49216;BME280;45943;53.148;8.204;2022-11-11T09:20:24;102872.75;;;12.80;100.00
49216;BME280;45943;53.148;8.204;2022-11-11T09:22:50;102871.97;;;12.78;100.00
49216;BME280;45943;53.148;8.204;2022-11-11T09:25:17;102873.72;;;13.25;100.00
49216;BME280;45943;53.148;8.204;2022-11-11T09:27:43;102882.69;;;13.10;100.00
49216;BME280;45943;53.148;8.204;2022-11-11T09:30:17;102883.78;;;12.91;100.00
49216;BME280;45943;53.148;8.204;2022-11-11T09:32:43;102899.06;;;12.91;100.00
49216;BME280;45943;53.148;8.204;2022-11-11T09:35:09;102891.22;;;12.86;100.00
49216;BME280;45943;53.148;8.204;2022-11-11T09:37:35;102884.13;;;12.85;100.00
49216;BME280;45943;53.148;8.204;2022-11-11T09:40:02;102890.69;;;12.96;100.00
49216;BME280;45943;53.148;8.204;2022-11-11T09:48:25;102905.91;;;13.12;100.00
49216;BME280;45943;53.148;8.204;2022-11-11T09:51:01;102906.38;;;12.73;100.00
49216;BME280;45943;53.148;8.204;2022-11-11T09:53:34;102912.53;;;12.75;100.00
49216;BME280;45943;53.148;8.204;2022-11-11T09:56:18;102915.72;;;12.98;100.00
49216;BME280;45943;53.148;8.204;2022-11-11T09:58:59;102916.88;;;13.09;100.00
49216;BME280;45943;53.148;8.204;2022-11-11T10:01:33;102917.81;;;13.08;100.00
49216;BME280;45943;53.148;8.204;2022-11-11T10:06:58;102911.72;;;13.05;100.00
49216;BME280;45943;53.148;8.204;2022-11-11T10:09:31;102913.66;;;13.03;100.00
49216;BME280;45943;53.148;8.204;2022-11-11T10:12:07;102901.06;;;13.19;100.00
49216;BME280;45943;53.148;8.204;2022-11-11T10:14:41;102903.28;;;13.11;100.00
49216;BME280;45943;53.148;8.204;2022-11-11T10:17:20;102916.16;;;13.06;100.00
49216;BME280;45943;53.148;8.204;2022-11-11T10:20:12;102904.56;;;13.35;100.00
49216;BME280;45943;53.148;8.204;2022-11-11T10:22:48;102905.59;;;13.48;100.00
49216;BME280;45943;53.148;8.204;2022-11-11T10:25:25;102910.06;;;13.34;100.00
49216;BME280;45943;53.148;8.204;2022-11-11T10:27:53;102907.00;;;13.40;100.00
49216;BME280;45943;53.148;8.204;2022-11-11T10:32:52;102909.31;;;13.46;100.00
49216;BME280;45943;53.148;8.204;2022-11-11T10:35:23;102912.31;;;13.26;100.00
49216;BME280;45943;53.148;8.204;2022-11-11T10:38:02;102910.34;;;13.29;100.00
49216;BME280;45943;53.148;8.204;2022-11-11T10:40:33;102921.34;;;13.40;100.00
49216;BME280;45943;53.148;8.204;2022-11-11T10:43:19;102919.75;;;13.22;100.00
49216;BME280;45943;53.148;8.204;2022-11-11T10:51:05;102904.34;;;13.24;100.00
49216;BME280;45943;53.148;8.204;2022-11-11T10:54:08;102912.50;;;13.07;100.00
49216;BME280;45943;53.148;8.204;2022-11-11T10:59:46;102919.47;;;13.11;100.00
49216;BME280;45943;53.148;8.204;2022-11-11T11:07:57;102912.94;;;13.61;100.00
49216;BME280;45943;53.148;8.204;2022-11-11T11:13:51;102915.53;;;13.62;100.00
49216;BME280;45943;53.148;8.204;2022-11-11T11:16:32;102912.00;;;13.46;100.00
49216;BME280;45943;53.148;8.204;2022-11-11T11:19:19;102910.91;;;13.64;100.00
49216;BME280;45943;53.148;8.204;2022-11-11T11:21:55;102907.88;;;13.40;100.00
49216;BME280;45943;53.148;8.204;2022-11-11T11:24:24;102906.47;;;13.49;100.00
49216;BME280;45943;53.148;8.204;2022-11-11T11:26:53;102907.81;;;13.26;100.00
49216;BME280;45943;53.148;8.204;2022-11-11T11:29:31;102901.88;;;13.35;100.00
49216;BME280;45943;53.148;8.204;2022-11-11T11:32:19;102912.25;;;13.57;100.00
49216;BME280;45943;53.148;8.204;2022-11-11T11:34:52;102908.22;;;13.64;100.00
49216;BME280;45943;53.148;8.204;2022-11-11T11:37:21;102915.63;;;13.61;100.00
49216;BME280;45943;53.148;8.204;2022-11-11T11:40:03;102906.72;;;13.89;100.00
49216;BME280;45943;53.148;8.204;2022-11-11T11:42:34;102897.66;;;14.04;100.00
49216;BME280;45943;53.148;8.204;2022-11-11T11:53:06;102887.16;;;15.25;100.00
49216;BME280;45943;53.148;8.204;2022-11-11T11:55:36;102896.88;;;15.27;100.00
49216;BME280;45943;53.148;8.204;2022-11-11T11:58:20;102898.09;;;14.82;100.00
49216;BME280;45943;53.148;8.204;2022-11-11T12:06:12;102894.66;;;15.59;100.00
49216;BME280;45943;53.148;8.204;2022-11-11T12:17:27;102891.66;;;16.27;100.00
49216;BME280;45943;53.148;8.204;2022-11-11T12:22:55;102882.06;;;16.60;100.00
49216;BME280;45943;53.148;8.204;2022-11-11T12:28:30;102889.44;;;17.18;100.00
49216;BME280;45943;53.148;8.204;2022-11-11T12:43:01;102887.34;;;18.26;100.00
49216;BME280;45943;53.148;8.204;2022-11-11T12:45:35;102874.63;;;18.04;100.00
49216;BME280;45943;53.148;8.204;2022-11-11T12:58:47;102885.25;;;18.07;100.00
49216;BME280;45943;53.148;8.204;2022-11-11T13:04:24;102881.19;;;18.24;100.00
49216;BME280;45943;53.148;8.204;2022-11-11T13:09:41;102887.22;;;18.27;100.00
49216;BME280;45943;53.148;8.204;2022-11-11T13:15:00;102888.72;;;18.43;100.00
49216;BME280;45943;53.148;8.204;2022-11-11T13:17:46;102884.84;;;18.56;100.00
49216;BME280;45943;53.148;8.204;2022-11-11T13:20:18;102891.06;;;18.14;100.00
49216;BME280;45943;53.148;8.204;2022-11-11T13:22:49;102893.63;;;17.93;100.00
49216;BME280;45943;53.148;8.204;2022-11-11T13:25:17;102892.81;;;17.68;100.00
49216;BME280;45943;53.148;8.204;2022-11-11T13:27:52;102885.88;;;17.99;100.00
49216;BME280;45943;53.148;8.204;2022-11-11T13:35:41;102880.66;;;18.75;100.00
49216;BME280;45943;53.148;8.204;2022-11-11T13:38:10;102885.72;;;18.46;100.00
49216;BME280;45943;53.148;8.204;2022-11-11T13:41:02;102887.78;;;18.98;100.00
49216;BME280;45943;53.148;8.204;2022-11-11T13:43:32;102880.44;;;19.63;100.00
49216;BME280;45943;53.148;8.204;2022-11-11T13:46:00;102887.25;;;19.99;95.84
49216;BME280;45943;53.148;8.204;2022-11-11T13:48:32;102890.16;;;19.44;95.79
49216;BME280;45943;53.148;8.204;2022-11-11T13:53:56;102894.53;;;19.68;100.00
49216;BME280;45943;53.148;8.204;2022-11-11T13:56:42;102889.44;;;19.42;95.98
49216;BME280;45943;53.148;8.204;2022-11-11T13:59:19;102887.50;;;19.86;97.39
49216;BME280;45943;53.148;8.204;2022-11-11T14:02:10;102891.56;;;19.39;97.74
49216;BME280;45943;53.148;8.204;2022-11-11T14:07:47;102892.00;;;20.27;92.73
49216;BME280;45943;53.148;8.204;2022-11-11T14:17:57;102900.28;;;19.74;92.33
49216;BME280;45943;53.148;8.204;2022-11-11T14:23:11;102911.09;;;18.69;100.00
49216;BME280;45943;53.148;8.204;2022-11-11T14:25:40;102903.38;;;18.62;100.00
49216;BME280;45943;53.148;8.204;2022-11-11T14:28:23;102907.22;;;18.15;100.00
49216;BME280;45943;53.148;8.204;2022-11-11T14:30:52;102908.84;;;18.18;100.00
49216;BME280;45943;53.148;8.204;2022-11-11T14:41:48;102911.25;;;17.17;100.00
49216;BME280;45943;53.148;8.204;2022-11-11T14:52:22;102924.28;;;16.88;100.00
49216;BME280;45943;53.148;8.204;2022-11-11T14:55:21;102934.13;;;17.02;100.00
49216;BME280;45943;53.148;8.204;2022-11-11T15:00:26;102931.25;;;16.79;100.00
49216;BME280;45943;53.148;8.204;2022-11-11T15:02:57;102930.38;;;16.66;100.00
49216;BME280;45943;53.148;8.204;2022-11-11T15:08:48;102936.03;;;16.63;100.00
49216;BME280;45943;53.148;8.204;2022-11-11T15:11:20;102944.63;;;16.44;100.00
49216;BME280;45943;53.148;8.204;2022-11-11T15:36:58;102956.88;;;15.86;100.00
49216;BME280;45943;53.148;8.204;2022-11-11T15:39:40;102950.69;;;15.84;100.00
49216;BME280;45943;53.148;8.204;2022-11-11T15:42:11;102959.34;;;15.89;100.00
49216;BME280;45943;53.148;8.204;2022-11-11T15:44:44;102960.56;;;15.85;100.00
49216;BME280;45943;53.148;8.204;2022-11-11T15:47:11;102960.97;;;15.79;100.00
49216;BME280;45943;53.148;8.204;2022-11-11T15:54:48;102963.53;;;15.41;100.00
49216;BME280;45943;53.148;8.204;2022-11-11T15:57:30;102962.44;;;15.43;100.00
49216;BME280;45943;53.148;8.204;2022-11-11T16:00:00;102967.13;;;15.14;100.00
49216;BME280;45943;53.148;8.204;2022-11-11T16:02:32;102972.13;;;15.20;100.00
49216;BME280;45943;53.148;8.204;2022-11-11T16:05:03;102976.28;;;15.12;100.00